createdAt,value
2023-05-04T00:01:22.639Z,5.93
2023-05-04T00:03:50.211Z,6.47
2023-05-04T00:06:17.890Z,6.10
2023-05-04T00:08:45.318Z,6.45
2023-05-04T00:11:12.790Z,6.68
2023-05-04T00:13:40.187Z,7.07
2023-05-04T00:16:09.966Z,6.40
2023-05-04T00:18:39.212Z,6.60
2023-05-04T00:21:07.143Z,6.80
2023-05-04T00:23:34.994Z,6.80
2023-05-04T00:26:02.468Z,6.40
2023-05-04T00:28:29.978Z,6.90
2023-05-04T00:30:57.468Z,7.40
2023-05-04T00:33:25.094Z,6.93
2023-05-04T00:35:52.630Z,7.22
2023-05-04T00:38:20.229Z,6.45
2023-05-04T00:40:47.624Z,6.53
2023-05-04T00:43:15.030Z,7.70
2023-05-04T00:45:42.589Z,6.97
2023-05-04T00:48:10.203Z,6.60
2023-05-04T00:50:37.732Z,7.15
2023-05-04T00:53:08.811Z,7.13
2023-05-04T00:55:43.153Z,7.05
2023-05-04T00:58:10.680Z,6.03
2023-05-04T01:00:38.141Z,6.35
2023-05-04T01:03:05.881Z,6.47
2023-05-04T01:05:36.900Z,7.03
2023-05-04T01:08:09.026Z,6.68
2023-05-04T01:10:58.781Z,7.40
2023-05-04T01:13:26.956Z,7.28
2023-05-04T01:15:54.388Z,7.07
2023-05-04T01:18:23.412Z,6.93
2023-05-04T01:20:51.553Z,6.72
2023-05-04T01:23:19.075Z,7.30
2023-05-04T01:25:52.929Z,6.97
2023-05-04T01:28:24.746Z,7.00
2023-05-04T01:30:54.387Z,7.65
2023-05-04T01:33:22.130Z,7.53
2023-05-04T01:35:50.085Z,7.70
2023-05-04T01:38:17.783Z,7.03
2023-05-04T01:40:45.263Z,6.95
2023-05-04T01:43:13.324Z,7.32
2023-05-04T01:45:40.749Z,7.15
2023-05-04T01:48:08.237Z,7.20
2023-05-04T01:50:35.835Z,6.70
2023-05-04T01:53:03.253Z,7.43
2023-05-04T01:55:31.547Z,7.25
2023-05-04T01:57:59.018Z,6.47
2023-05-04T02:00:26.831Z,7.05
2023-05-04T02:02:54.381Z,6.70
2023-05-04T02:05:21.969Z,6.78
2023-05-04T02:07:49.498Z,7.03
2023-05-04T02:10:16.972Z,6.05
2023-05-04T02:12:44.679Z,5.50
2023-05-04T02:15:12.380Z,5.50
2023-05-04T02:17:39.868Z,6.07
2023-05-04T02:20:07.780Z,5.30
2023-05-04T02:22:35.977Z,6.32
2023-05-04T02:25:03.495Z,6.28
2023-05-04T02:27:30.893Z,6.13
2023-05-04T02:29:58.554Z,7.45
2023-05-04T02:32:26.498Z,7.07
2023-05-04T02:34:54.463Z,7.25
2023-05-04T02:37:22.394Z,7.68
2023-05-04T02:39:49.826Z,6.40
2023-05-04T02:42:17.603Z,6.40
2023-05-04T02:44:45.306Z,6.65
2023-05-04T02:47:12.821Z,6.80
2023-05-04T02:49:40.247Z,6.65
2023-05-04T02:52:07.960Z,7.03
2023-05-04T02:54:35.557Z,6.38
2023-05-04T02:57:03.120Z,6.07
2023-05-04T02:59:30.883Z,6.00
2023-05-04T03:01:58.389Z,6.38
2023-05-04T03:04:26.185Z,5.78
2023-05-04T03:06:53.670Z,6.40
2023-05-04T03:09:21.126Z,6.65
2023-05-04T03:11:48.668Z,5.93
2023-05-04T03:14:16.412Z,6.75
2023-05-04T03:16:45.703Z,6.40
2023-05-04T03:19:13.186Z,7.20
2023-05-04T03:21:40.715Z,6.45
2023-05-04T03:24:08.217Z,6.28
2023-05-04T03:26:36.022Z,6.93
2023-05-04T03:29:03.453Z,7.00
2023-05-04T03:31:31.412Z,6.10
2023-05-04T03:33:58.898Z,6.53
2023-05-04T03:36:26.462Z,6.05
2023-05-04T03:38:53.906Z,6.15
2023-05-04T03:41:21.551Z,6.15
2023-05-04T03:43:49.030Z,6.03
2023-05-04T03:46:16.983Z,6.28
2023-05-04T03:48:46.452Z,8.43
2023-05-04T03:51:16.581Z,8.43
2023-05-04T03:53:44.922Z,7.50
2023-05-04T03:56:14.221Z,6.55
2023-05-04T03:58:41.701Z,6.03
2023-05-04T04:01:09.120Z,6.25
2023-05-04T04:03:36.825Z,6.35
2023-05-04T04:06:04.473Z,8.15
2023-05-04T04:08:32.008Z,6.53
2023-05-04T04:10:59.439Z,6.00
2023-05-04T04:13:28.000Z,5.80
2023-05-04T04:15:55.528Z,6.55
2023-05-04T04:18:24.532Z,5.70
2023-05-04T04:20:52.110Z,5.93
2023-05-04T04:23:19.696Z,6.90
2023-05-04T04:25:47.333Z,6.97
2023-05-04T04:28:15.125Z,6.22
2023-05-04T04:30:42.770Z,6.78
2023-05-04T04:33:10.454Z,6.60
2023-05-04T04:35:37.971Z,8.93
2023-05-04T04:38:05.405Z,8.10
2023-05-04T04:40:32.893Z,7.15
2023-05-04T04:43:00.438Z,6.70
2023-05-04T04:45:28.313Z,8.77
2023-05-04T04:47:56.256Z,11.48
2023-05-04T04:50:23.653Z,11.50
2023-05-04T04:52:51.091Z,17.92
2023-05-04T04:55:18.629Z,7.97
2023-05-04T04:57:46.095Z,12.15
2023-05-04T05:00:14.535Z,18.90
2023-05-04T05:02:42.136Z,41.03
2023-05-04T05:05:10.161Z,7.03
2023-05-04T05:07:37.613Z,8.85
2023-05-04T05:10:05.602Z,18.98
2023-05-04T05:12:33.243Z,20.27
2023-05-04T05:15:00.781Z,16.90
2023-05-04T05:17:28.300Z,31.00
2023-05-04T05:19:55.755Z,11.45
2023-05-04T05:22:23.531Z,17.30
2023-05-04T05:24:51.056Z,12.50
2023-05-04T05:27:18.448Z,11.52
2023-05-04T05:29:45.917Z,11.65
2023-05-04T05:32:13.392Z,11.45
2023-05-04T05:34:41.037Z,21.83
2023-05-04T05:37:08.597Z,17.10
2023-05-04T05:39:37.162Z,11.65
2023-05-04T05:42:04.617Z,29.45
2023-05-04T05:44:32.129Z,14.35
2023-05-04T05:46:59.529Z,11.55
2023-05-04T05:49:27.130Z,13.25
2023-05-04T05:51:54.543Z,17.05
2023-05-04T05:54:23.156Z,27.38
2023-05-04T05:56:50.703Z,21.17
2023-05-04T05:59:18.101Z,33.90
2023-05-04T06:01:45.627Z,13.75
2023-05-04T06:04:13.152Z,17.05
2023-05-04T06:06:40.800Z,16.23
2023-05-04T06:09:08.226Z,16.05
2023-05-04T06:11:35.747Z,19.27
2023-05-04T06:14:03.146Z,8.20
2023-05-04T06:16:30.787Z,18.20
2023-05-04T06:18:58.294Z,6.90
2023-05-04T06:21:25.953Z,8.63
2023-05-04T06:23:53.347Z,11.73
2023-05-04T06:26:22.116Z,8.65
2023-05-04T06:28:50.142Z,14.02
2023-05-04T06:31:18.459Z,11.85
2023-05-04T06:33:46.171Z,10.48
2023-05-04T06:36:14.142Z,8.38
2023-05-04T06:38:41.567Z,8.07
2023-05-04T06:41:09.319Z,9.00
2023-05-04T06:43:38.866Z,9.43
2023-05-04T06:46:06.341Z,9.02
2023-05-04T06:48:33.778Z,8.07
2023-05-04T06:51:02.872Z,8.05
2023-05-04T06:53:30.636Z,7.15
2023-05-04T06:55:58.061Z,8.95
2023-05-04T06:58:26.372Z,12.45
2023-05-04T07:00:53.934Z,20.88
2023-05-04T07:03:21.611Z,10.60
2023-05-04T07:05:50.756Z,10.30
2023-05-04T07:08:19.690Z,8.52
2023-05-04T07:10:47.456Z,8.27
2023-05-04T07:13:15.299Z,6.63
2023-05-04T07:15:42.778Z,7.22
2023-05-04T07:18:10.375Z,7.53
2023-05-04T07:20:37.894Z,7.45
2023-05-04T07:23:05.331Z,7.40
2023-05-04T07:25:32.832Z,8.35
2023-05-04T07:28:01.027Z,8.77
2023-05-04T07:30:28.524Z,8.50
2023-05-04T07:32:56.224Z,8.10
2023-05-04T07:35:23.765Z,7.78
2023-05-04T07:37:51.684Z,7.50
2023-05-04T07:40:19.129Z,7.03
2023-05-04T07:42:46.616Z,6.97
2023-05-04T07:45:16.353Z,7.72
2023-05-04T07:47:43.946Z,7.70
2023-05-04T07:50:11.675Z,7.03
2023-05-04T07:52:39.318Z,7.07
2023-05-04T07:55:07.056Z,7.40
2023-05-04T07:57:35.834Z,7.60
2023-05-04T08:00:04.961Z,9.77
2023-05-04T08:02:40.938Z,7.32
2023-05-04T08:05:08.627Z,6.85
2023-05-04T08:07:36.053Z,6.90
2023-05-04T08:10:04.037Z,5.85
2023-05-04T08:12:32.065Z,7.40
2023-05-04T08:14:59.858Z,7.20
2023-05-04T08:17:27.599Z,6.63
2023-05-04T08:19:55.398Z,6.15
2023-05-04T08:22:22.834Z,5.30
2023-05-04T08:24:50.331Z,5.80
2023-05-04T08:27:17.806Z,5.45
2023-05-04T08:29:45.301Z,5.38
2023-05-04T08:32:12.708Z,5.68
2023-05-04T08:34:40.118Z,5.07
2023-05-04T08:37:07.591Z,5.32
2023-05-04T08:39:35.199Z,5.68
2023-05-04T08:42:02.989Z,5.82
2023-05-04T08:44:31.289Z,6.00
2023-05-04T08:46:58.707Z,6.70
2023-05-04T08:49:29.144Z,6.60
2023-05-04T08:51:57.580Z,5.68
2023-05-04T08:54:25.853Z,5.57
2023-05-04T08:56:55.070Z,5.80
2023-05-04T08:59:23.739Z,5.38
2023-05-04T09:01:53.876Z,5.80
2023-05-04T09:04:22.404Z,5.90
2023-05-04T09:06:49.963Z,5.78
2023-05-04T09:09:17.508Z,5.70
2023-05-04T09:11:44.965Z,5.72
2023-05-04T09:14:12.498Z,5.38
2023-05-04T09:16:39.991Z,6.80
2023-05-04T09:19:18.160Z,5.28
2023-05-04T09:21:47.139Z,5.85
2023-05-04T09:24:14.562Z,5.53
2023-05-04T09:26:42.006Z,5.65
2023-05-04T09:29:16.390Z,5.65
2023-05-04T09:31:48.067Z,6.25
2023-05-04T09:34:15.957Z,5.70
2023-05-04T09:36:43.587Z,5.63
2023-05-04T09:39:14.645Z,5.85
2023-05-04T09:41:42.613Z,6.38
2023-05-04T09:44:19.696Z,6.38
2023-05-04T09:46:56.820Z,6.43
2023-05-04T09:49:34.140Z,5.50
2023-05-04T09:52:02.867Z,6.07
2023-05-04T09:54:38.925Z,6.03
2023-05-04T09:57:09.971Z,6.50
2023-05-04T09:59:37.670Z,5.85
2023-05-04T10:02:14.408Z,6.00
2023-05-04T10:04:50.732Z,5.32
2023-05-04T10:07:18.798Z,5.85
2023-05-04T10:09:47.697Z,5.50
2023-05-04T10:12:15.135Z,5.45
2023-05-04T10:14:46.722Z,5.35
2023-05-04T10:17:17.191Z,5.43
2023-05-04T10:20:07.939Z,5.45
2023-05-04T10:22:55.650Z,4.82
2023-05-04T10:25:33.380Z,4.97
2023-05-04T10:28:13.169Z,5.30
2023-05-04T10:30:40.760Z,5.03
2023-05-04T10:33:08.442Z,5.03
2023-05-04T10:35:36.113Z,5.20
2023-05-04T10:38:04.462Z,5.35
2023-05-04T10:40:36.514Z,5.28
2023-05-04T10:43:04.545Z,4.70
2023-05-04T10:45:42.344Z,5.32
2023-05-04T10:48:10.678Z,5.13
2023-05-04T10:50:48.067Z,5.40
2023-05-04T10:53:16.484Z,5.40
2023-05-04T10:55:45.356Z,5.32
2023-05-04T10:58:21.416Z,5.13
2023-05-04T11:00:51.788Z,5.20
2023-05-04T11:03:22.175Z,4.70
2023-05-04T11:05:51.578Z,5.25
2023-05-04T11:08:24.293Z,5.28
2023-05-04T11:11:07.622Z,5.03
2023-05-04T11:13:36.121Z,5.22
2023-05-04T11:16:03.767Z,5.20
2023-05-04T11:18:32.425Z,5.35
2023-05-04T11:20:59.936Z,5.25
2023-05-04T11:23:28.365Z,4.95
2023-05-04T11:25:55.837Z,4.97
2023-05-04T11:28:36.178Z,5.95
2023-05-04T11:31:13.950Z,6.07
2023-05-04T11:33:54.935Z,5.13
2023-05-04T11:36:23.104Z,5.20
2023-05-04T11:38:50.991Z,5.75
2023-05-04T11:41:18.491Z,5.35
2023-05-04T11:43:46.670Z,4.68
2023-05-04T11:46:14.957Z,5.38
2023-05-04T11:48:42.714Z,5.45
2023-05-04T11:51:10.235Z,5.50
2023-05-04T11:53:38.678Z,5.50
2023-05-04T11:56:06.711Z,5.55
2023-05-04T11:58:34.122Z,5.82
2023-05-04T12:01:01.791Z,5.65
2023-05-04T12:03:47.989Z,5.85
2023-05-04T12:06:19.796Z,5.40
2023-05-04T12:08:47.168Z,5.60
2023-05-04T12:11:25.840Z,5.15
2023-05-04T12:14:24.520Z,5.35
2023-05-04T12:16:56.190Z,5.43
2023-05-04T12:19:23.945Z,6.15
2023-05-04T12:21:52.996Z,5.70
2023-05-04T12:24:23.992Z,5.35
2023-05-04T12:26:52.043Z,5.78
2023-05-04T12:29:19.638Z,5.65
2023-05-04T12:31:47.084Z,5.07
2023-05-04T12:34:14.629Z,5.65
2023-05-04T12:36:41.982Z,5.22
2023-05-04T12:39:09.430Z,5.22
2023-05-04T12:41:37.334Z,5.55
2023-05-04T12:44:05.040Z,5.82
2023-05-04T12:46:32.574Z,6.20
2023-05-04T12:49:00.206Z,6.00
2023-05-04T12:51:27.735Z,5.50
2023-05-04T12:53:57.881Z,4.90
2023-05-04T12:56:25.819Z,5.70
2023-05-04T12:58:53.276Z,5.47
2023-05-04T13:01:20.987Z,5.95
2023-05-04T13:03:48.537Z,5.57
2023-05-04T13:06:16.317Z,6.35
2023-05-04T13:08:44.531Z,5.88
2023-05-04T13:11:11.956Z,5.43
2023-05-04T13:13:39.471Z,5.80
2023-05-04T13:16:07.205Z,5.68
2023-05-04T13:18:34.687Z,5.50
2023-05-04T13:21:02.109Z,6.05
2023-05-04T13:23:29.928Z,5.60
2023-05-04T13:25:57.456Z,6.78
2023-05-04T13:28:24.925Z,6.93
2023-05-04T13:30:53.113Z,6.47
2023-05-04T13:33:28.705Z,5.47
2023-05-04T13:35:58.469Z,6.40
2023-05-04T13:38:26.309Z,7.45
2023-05-04T13:40:53.849Z,6.28
2023-05-04T13:43:22.402Z,6.22
2023-05-04T13:45:49.952Z,6.22
2023-05-04T13:48:18.091Z,6.60
2023-05-04T13:50:46.192Z,6.25
2023-05-04T13:53:13.740Z,6.43
2023-05-04T13:55:41.230Z,6.88
2023-05-04T13:58:08.639Z,6.57
2023-05-04T14:00:36.071Z,6.75
2023-05-04T14:03:03.800Z,6.72
2023-05-04T14:05:31.649Z,7.57
2023-05-04T14:07:59.171Z,8.20
2023-05-04T14:10:26.902Z,8.25
2023-05-04T14:12:54.648Z,7.75
2023-05-04T14:15:23.162Z,7.60
2023-05-04T14:17:51.201Z,8.73
2023-05-04T14:20:18.682Z,7.50
2023-05-04T14:22:46.182Z,7.50
2023-05-04T14:25:14.087Z,7.85
2023-05-04T14:27:42.962Z,7.25
2023-05-04T14:30:10.922Z,7.75
2023-05-04T14:32:38.591Z,7.10
2023-05-04T14:35:10.960Z,7.30
2023-05-04T14:37:39.330Z,7.32
2023-05-04T14:40:07.988Z,11.75
2023-05-04T14:42:36.388Z,7.72
2023-05-04T14:45:03.904Z,7.93
2023-05-04T14:47:31.681Z,8.20
2023-05-04T14:49:59.084Z,9.10
2023-05-04T14:52:27.152Z,9.68
2023-05-04T14:54:54.651Z,9.95
2023-05-04T14:57:22.374Z,9.05
2023-05-04T14:59:49.844Z,8.27
2023-05-04T15:02:18.782Z,8.57
2023-05-04T15:04:47.030Z,8.80
2023-05-04T15:07:16.173Z,9.15
2023-05-04T15:09:43.822Z,8.20
2023-05-04T15:12:11.766Z,8.65
2023-05-04T15:14:39.334Z,8.82
2023-05-04T15:17:07.294Z,8.60
2023-05-04T15:19:37.860Z,9.88
2023-05-04T15:22:05.756Z,9.02
2023-05-04T15:24:33.206Z,10.02
2023-05-04T15:27:02.016Z,9.50
2023-05-04T15:29:29.676Z,8.57
2023-05-04T15:31:57.287Z,9.02
2023-05-04T15:34:24.704Z,8.93
2023-05-04T15:36:52.578Z,8.63
2023-05-04T15:39:19.974Z,8.55
2023-05-04T15:41:47.634Z,8.18
2023-05-04T15:44:15.366Z,8.52
2023-05-04T15:46:43.273Z,8.25
2023-05-04T15:49:10.734Z,8.23
2023-05-04T15:51:57.802Z,8.20
2023-05-04T15:54:28.527Z,7.93
2023-05-04T15:57:05.876Z,8.50
2023-05-04T15:59:33.404Z,8.60
2023-05-04T16:02:01.133Z,7.40
2023-05-04T16:04:28.842Z,8.25
2023-05-04T16:06:56.354Z,7.25
2023-05-04T16:09:23.893Z,8.00
2023-05-04T16:11:51.287Z,7.40
2023-05-04T16:14:18.902Z,7.78
2023-05-04T16:16:46.381Z,8.07
2023-05-04T16:19:13.903Z,7.82
2023-05-04T16:21:41.331Z,8.30
2023-05-04T16:24:10.122Z,7.85
2023-05-04T16:26:37.760Z,7.70
2023-05-04T16:29:08.286Z,8.95
2023-05-04T16:31:36.075Z,7.43
2023-05-04T16:34:03.653Z,8.10
2023-05-04T16:36:31.680Z,8.05
2023-05-04T16:38:59.258Z,8.27
2023-05-04T16:41:30.642Z,7.65
2023-05-04T16:43:58.116Z,8.13
2023-05-04T16:46:25.742Z,7.47
2023-05-04T16:48:56.222Z,7.75
2023-05-04T16:51:27.148Z,8.00
2023-05-04T16:53:58.189Z,8.02
2023-05-04T16:56:26.346Z,7.45
2023-05-04T16:58:57.179Z,7.90
2023-05-04T17:01:26.052Z,8.60
2023-05-04T17:03:53.642Z,8.50
2023-05-04T17:06:21.471Z,8.30
2023-05-04T17:08:49.132Z,8.10
2023-05-04T17:11:16.870Z,8.57
2023-05-04T17:13:44.358Z,8.02
2023-05-04T17:16:11.861Z,8.60
2023-05-04T17:18:39.235Z,9.57
2023-05-04T17:21:06.736Z,9.70
2023-05-04T17:23:34.148Z,8.75
2023-05-04T17:26:02.127Z,8.73
2023-05-04T17:28:30.533Z,7.90
2023-05-04T17:30:58.021Z,7.63
2023-05-04T17:33:25.436Z,7.40
2023-05-04T17:35:53.005Z,8.18
2023-05-04T17:38:20.402Z,7.88
2023-05-04T17:40:47.949Z,8.90
2023-05-04T17:43:15.421Z,9.50
2023-05-04T17:45:43.420Z,9.80
2023-05-04T17:48:10.938Z,10.10
2023-05-04T17:50:40.154Z,10.38
2023-05-04T17:53:07.628Z,10.07
2023-05-04T17:55:35.095Z,9.80
2023-05-04T17:58:02.662Z,10.30
2023-05-04T18:00:30.106Z,10.02
2023-05-04T18:02:57.775Z,10.30
2023-05-04T18:05:26.136Z,10.15
2023-05-04T18:07:53.720Z,9.93
2023-05-04T18:10:23.656Z,10.15
2023-05-04T18:12:51.154Z,10.52
2023-05-04T18:15:18.645Z,9.90
2023-05-04T18:17:46.322Z,9.65
2023-05-04T18:20:13.857Z,9.85
2023-05-04T18:22:41.440Z,10.57
2023-05-04T18:25:09.117Z,9.35
2023-05-04T18:27:36.861Z,10.52
2023-05-04T18:30:05.480Z,10.07
2023-05-04T18:32:33.461Z,10.48
2023-05-04T18:35:01.528Z,10.90
2023-05-04T18:37:32.389Z,10.57
2023-05-04T18:40:00.059Z,10.02
2023-05-04T18:42:27.576Z,10.35
2023-05-04T18:44:56.207Z,11.10
2023-05-04T18:47:23.719Z,10.13
2023-05-04T18:49:52.321Z,10.45
2023-05-04T18:52:19.789Z,10.32
2023-05-04T18:54:47.681Z,9.85
2023-05-04T18:57:15.234Z,10.43
2023-05-04T18:59:42.694Z,10.55
2023-05-04T19:02:10.249Z,10.52
2023-05-04T19:07:45.401Z,11.45
2023-05-04T19:10:13.064Z,11.60
2023-05-04T19:12:40.634Z,11.75
2023-05-04T19:15:08.389Z,11.30
2023-05-04T19:17:36.091Z,11.52
2023-05-04T19:20:03.647Z,11.48
2023-05-04T19:22:32.609Z,11.38
2023-05-04T19:25:00.015Z,12.10
2023-05-04T19:27:27.635Z,11.48
2023-05-04T19:29:56.195Z,11.02
2023-05-04T19:32:25.033Z,11.15
2023-05-04T19:34:52.954Z,11.75
2023-05-04T19:37:21.242Z,12.02
2023-05-04T19:39:48.759Z,10.95
2023-05-04T19:42:16.518Z,12.10
2023-05-04T19:44:44.056Z,11.10
2023-05-04T19:47:12.693Z,12.15
2023-05-04T19:49:40.211Z,11.13
2023-05-04T19:52:07.737Z,10.95
2023-05-04T19:54:38.203Z,11.35
2023-05-04T19:57:05.895Z,11.13
2023-05-04T19:59:33.336Z,10.95
2023-05-04T20:02:01.305Z,11.38
2023-05-04T20:04:28.930Z,12.52
2023-05-04T20:06:56.390Z,12.00
2023-05-04T20:09:26.823Z,11.50
2023-05-04T20:11:54.386Z,11.13
2023-05-04T20:14:21.752Z,11.43
2023-05-04T20:16:49.358Z,11.63
2023-05-04T20:19:16.985Z,12.60
2023-05-04T20:21:44.532Z,10.88
2023-05-04T20:24:12.779Z,11.32
2023-05-04T20:26:40.884Z,10.88
2023-05-04T20:29:08.771Z,11.98
2023-05-04T20:31:36.382Z,11.63
2023-05-04T20:34:03.803Z,11.18
2023-05-04T20:36:31.665Z,11.65
2023-05-04T20:39:06.626Z,11.35
2023-05-04T20:44:01.415Z,10.77
2023-05-04T20:46:28.968Z,10.75
2023-05-04T20:48:57.010Z,11.73
2023-05-04T20:51:24.894Z,11.20
2023-05-04T20:53:52.386Z,11.55
2023-05-04T20:56:19.798Z,11.30
2023-05-04T20:58:47.192Z,11.27
2023-05-04T21:01:14.766Z,11.35
2023-05-04T21:03:42.436Z,11.95
2023-05-04T21:06:10.024Z,10.20
2023-05-04T21:08:37.591Z,11.27
2023-05-04T21:11:05.135Z,11.15
2023-05-04T21:13:32.572Z,11.13
2023-05-04T21:16:00.076Z,11.00
2023-05-04T21:18:27.617Z,11.20
2023-05-04T21:20:55.100Z,10.73
2023-05-04T21:23:23.721Z,10.30
2023-05-04T21:25:51.252Z,10.60
2023-05-04T21:28:18.813Z,10.50
2023-05-04T21:30:46.291Z,10.98
2023-05-04T21:33:13.918Z,9.95
2023-05-04T21:35:41.428Z,9.75
2023-05-04T21:38:08.979Z,9.50
2023-05-04T21:40:36.390Z,9.60
2023-05-04T21:43:03.868Z,10.35
2023-05-04T21:45:31.863Z,10.00
2023-05-04T21:47:59.561Z,10.63
2023-05-04T21:50:27.015Z,10.90
2023-05-04T21:52:54.441Z,9.82
2023-05-04T21:55:21.867Z,10.80
2023-05-04T21:57:49.315Z,10.15
2023-05-04T22:00:20.211Z,10.30
2023-05-04T22:02:47.981Z,9.93
2023-05-04T22:05:15.452Z,10.18
2023-05-04T22:07:42.891Z,10.55
2023-05-04T22:10:11.314Z,10.02
2023-05-04T22:12:38.907Z,9.38
2023-05-04T22:15:06.741Z,10.20
2023-05-04T22:17:34.320Z,9.32
2023-05-04T22:20:01.733Z,9.23
2023-05-04T22:22:29.271Z,8.75
2023-05-04T22:24:57.177Z,9.30
2023-05-04T22:27:24.694Z,9.00
2023-05-04T22:29:52.145Z,10.57
2023-05-04T22:32:19.597Z,9.68
2023-05-04T22:34:47.031Z,8.85
2023-05-04T22:37:14.538Z,8.77
2023-05-04T22:39:41.923Z,8.75
2023-05-04T22:42:09.373Z,9.15
2023-05-04T22:44:36.840Z,9.05
2023-05-04T22:47:04.452Z,9.18
2023-05-04T22:49:31.896Z,8.98
2023-05-04T22:51:59.697Z,9.38
2023-05-04T22:54:27.228Z,9.80
2023-05-04T22:56:54.761Z,9.07
2023-05-04T22:59:22.197Z,9.48
2023-05-04T23:01:50.347Z,9.48
2023-05-04T23:04:17.771Z,9.60
2023-05-04T23:06:45.173Z,9.65
2023-05-04T23:09:14.205Z,9.52
2023-05-04T23:11:42.299Z,9.63
2023-05-04T23:14:09.741Z,9.73
2023-05-04T23:16:37.750Z,10.38
2023-05-04T23:19:05.274Z,9.90
2023-05-04T23:21:32.725Z,10.13
2023-05-04T23:24:00.126Z,9.77
2023-05-04T23:26:27.925Z,10.23
2023-05-04T23:28:55.489Z,10.40
2023-05-04T23:31:22.961Z,9.55
2023-05-04T23:33:50.529Z,10.38
2023-05-04T23:36:17.969Z,10.35
2023-05-04T23:38:45.426Z,10.07
2023-05-04T23:41:13.411Z,10.70
2023-05-04T23:43:40.942Z,10.20
2023-05-04T23:46:08.450Z,9.88
2023-05-04T23:48:35.960Z,9.70
2023-05-04T23:51:04.565Z,10.57
2023-05-04T23:53:32.385Z,10.25
2023-05-04T23:56:04.538Z,10.45
2023-05-04T23:58:32.576Z,9.93
